Time;durP1;ratioP1;P1;durP2;ratioP2;P2;SDS_P1;SDS_P2;PMS_P1;PMS_P2;Temp;Humidity;BMP_temperature;BMP_pressure;BME280_temperature;BME280_humidity;BME280_pressure;Samples;Min_cycle;Max_cycle;Signal;HPM_P1;HPM_P2
2023/05/19 00:00:56;;;;;;;1.87;1.50;;;12.70;52.90;;;;;;937583;152;27312;-74
2023/05/19 00:03:23;;;;;;;2.13;1.50;;;12.70;53.00;;;;;;937337;151;27478;-74
2023/05/19 00:05:50;;;;;;;3.10;1.50;;;12.60;53.10;;;;;;938089;152;27395;-74
2023/05/19 00:08:16;;;;;;;3.07;1.90;;;12.60;53.30;;;;;;937020;152;27416;-74
2023/05/19 00:10:42;;;;;;;2.33;1.80;;;12.50;53.30;;;;;;937704;152;27710;-74
2023/05/19 00:13:09;;;;;;;2.77;1.70;;;12.50;53.70;;;;;;937229;149;27452;-74
2023/05/19 00:15:35;;;;;;;2.60;1.70;;;12.40;53.70;;;;;;942740;151;27398;-74
2023/05/19 00:18:02;;;;;;;5.00;1.67;;;12.40;53.20;;;;;;943331;151;27327;-74
2023/05/19 00:20:29;;;;;;;2.37;1.40;;;12.30;54.00;;;;;;942914;149;27317;-74
2023/05/19 00:22:55;;;;;;;1.70;1.50;;;12.20;54.10;;;;;;942344;149;27420;-74
2023/05/19 00:25:22;;;;;;;2.80;1.60;;;12.20;54.30;;;;;;943270;151;27390;-74
2023/05/19 00:27:48;;;;;;;2.43;1.47;;;12.10;54.40;;;;;;941762;151;27344;-74
2023/05/19 00:30:15;;;;;;;3.07;1.77;;;12.10;54.60;;;;;;942642;149;27333;-74
2023/05/19 00:32:42;;;;;;;2.70;1.60;;;12.00;54.60;;;;;;943991;149;27430;-74
2023/05/19 00:35:08;;;;;;;3.00;1.80;;;11.90;54.80;;;;;;942905;149;27448;-74
2023/05/19 00:37:35;;;;;;;3.40;1.60;;;11.90;55.00;;;;;;943506;151;27374;-74
2023/05/19 00:40:01;;;;;;;3.77;1.63;;;11.90;55.30;;;;;;943555;149;27418;-74
2023/05/19 00:42:28;;;;;;;1.53;1.43;;;11.80;55.30;;;;;;943857;149;27384;-74
2023/05/19 00:44:55;;;;;;;1.83;1.37;;;11.80;55.20;;;;;;943924;151;27337;-74
2023/05/19 00:47:21;;;;;;;3.27;1.43;;;11.70;55.40;;;;;;943719;151;27445;-74
2023/05/19 00:49:48;;;;;;;2.53;1.63;;;11.70;55.50;;;;;;943550;149;27364;-74
2023/05/19 00:52:14;;;;;;;3.57;1.63;;;11.60;55.60;;;;;;943034;151;27432;-74
2023/05/19 00:54:41;;;;;;;2.10;1.40;;;11.60;55.80;;;;;;942790;151;27301;-74
2023/05/19 00:57:07;;;;;;;4.10;1.90;;;11.50;55.80;;;;;;943633;149;27515;-74
2023/05/19 00:59:34;;;;;;;3.30;2.50;;;11.50;56.00;;;;;;943252;151;27411;-74
2023/05/19 01:02:01;;;;;;;4.77;1.90;;;11.50;56.20;;;;;;943687;151;27421;-74
2023/05/19 01:04:28;;;;;;;3.90;1.70;;;11.40;56.00;;;;;;943523;149;27316;-74
2023/05/19 01:06:54;;;;;;;3.37;1.80;;;11.40;56.30;;;;;;943586;149;27439;-74
2023/05/19 01:09:21;;;;;;;5.60;1.80;;;11.30;56.40;;;;;;942939;151;27392;-74
2023/05/19 01:11:47;;;;;;;3.80;1.63;;;11.30;56.40;;;;;;943777;151;27318;-74
2023/05/19 01:14:14;;;;;;;3.90;1.80;;;11.30;56.60;;;;;;943442;149;27300;-74
2023/05/19 01:16:40;;;;;;;2.73;1.70;;;11.20;56.70;;;;;;943534;149;27447;-74
2023/05/19 01:19:24;;;;;;;2.83;1.70;;;11.20;56.90;;;;;;942069;151;27366;-74
2023/05/19 01:22:11;;;;;;;3.53;1.73;;;11.10;56.80;;;;;;934894;149;27334;-74
2023/05/19 01:24:36;;;;;;;4.83;1.67;;;11.10;57.00;;;;;;910190;155;27733;-74
2023/05/19 01:27:06;;;;;;;3.80;1.67;;;11.10;57.50;;;;;;931404;149;27409;-74
2023/05/19 01:29:35;;;;;;;1.90;1.70;;;11.00;57.00;;;;;;943438;149;27385;-74
2023/05/19 01:32:02;;;;;;;3.67;1.90;;;11.00;57.10;;;;;;941790;149;28067;-75
2023/05/19 01:34:28;;;;;;;3.27;1.67;;;10.90;57.40;;;;;;943353;151;27318;-74
2023/05/19 01:36:55;;;;;;;3.60;1.90;;;10.90;57.40;;;;;;943572;149;27351;-74
2023/05/19 01:39:21;;;;;;;2.37;1.57;;;10.80;57.60;;;;;;943163;149;27476;-75
2023/05/19 01:41:48;;;;;;;2.00;1.60;;;10.80;57.70;;;;;;946859;149;27360;-75
2023/05/19 01:44:15;;;;;;;2.63;1.70;;;10.80;57.80;;;;;;931562;151;27508;-75
2023/05/19 01:46:41;;;;;;;4.33;1.70;;;10.80;57.90;;;;;;928185;152;27428;-75
2023/05/19 01:49:08;;;;;;;1.73;1.30;;;10.70;58.00;;;;;;928233;152;27411;-74
2023/05/19 01:51:34;;;;;;;3.50;1.53;;;10.70;58.10;;;;;;930317;151;27861;-74
2023/05/19 01:54:01;;;;;;;2.87;1.60;;;10.60;58.20;;;;;;946819;149;27455;-75
2023/05/19 01:56:33;;;;;;;1.93;1.63;;;10.60;58.30;;;;;;929210;151;27351;-74
2023/05/19 01:59:00;;;;;;;2.50;2.30;;;10.50;58.30;;;;;;946140;148;27332;-75
2023/05/19 02:01:27;;;;;;;1.77;1.43;;;10.50;58.30;;;;;;934678;151;27479;-74
2023/05/19 02:03:53;;;;;;;1.90;1.70;;;10.40;58.40;;;;;;946911;149;27265;-75
2023/05/19 02:06:41;;;;;;;2.47;1.63;;;10.40;58.60;;;;;;929452;151;27343;-75
2023/05/19 02:09:10;;;;;;;3.13;1.90;;;10.30;58.60;;;;;;950351;148;27347;-75
2023/05/19 02:11:40;;;;;;;4.07;1.70;;;10.20;58.70;;;;;;947049;148;27371;-75
2023/05/19 02:14:12;;;;;;;2.10;1.67;;;10.20;59.10;;;;;;945894;148;27934;-75
2023/05/19 02:16:39;;;;;;;3.50;1.90;;;10.10;58.60;;;;;;911126;149;27421;-75
2023/05/19 02:19:05;;;;;;;5.50;2.03;;;10.00;59.20;;;;;;939689;149;27418;-75
2023/05/19 02:21:32;;;;;;;1.90;1.67;;;10.00;59.30;;;;;;921712;151;27477;-75
2023/05/19 02:23:58;;;;;;;4.47;1.80;;;9.90;59.50;;;;;;940846;149;27361;-76
2023/05/19 02:26:25;;;;;;;3.53;1.70;;;9.80;59.50;;;;;;924302;151;27337;-76
2023/05/19 02:28:52;;;;;;;3.50;1.50;;;9.80;59.60;;;;;;917213;152;27405;-76
2023/05/19 02:31:18;;;;;;;2.67;1.60;;;9.70;59.80;;;;;;940603;149;27312;-76
2023/05/19 02:33:45;;;;;;;2.10;1.67;;;9.70;59.80;;;;;;929580;151;27443;-74
2023/05/19 02:36:13;;;;;;;2.63;1.70;;;9.60;60.00;;;;;;917537;152;27430;-74
2023/05/19 02:38:38;;;;;;;4.23;1.93;;;9.60;60.10;;;;;;932363;150;27363;-75
2023/05/19 02:41:04;;;;;;;2.70;1.60;;;9.50;60.30;;;;;;925353;152;27316;-75
2023/05/19 02:43:31;;;;;;;3.43;1.80;;;9.40;60.40;;;;;;941100;149;27373;-74
2023/05/19 02:45:58;;;;;;;3.63;1.57;;;9.40;60.60;;;;;;940428;149;27372;-74
2023/05/19 02:48:24;;;;;;;3.20;1.70;;;9.40;60.90;;;;;;924602;151;27295;-76
2023/05/19 02:50:51;;;;;;;2.03;1.70;;;9.30;61.00;;;;;;917948;152;27391;-75
2023/05/19 02:53:17;;;;;;;1.87;1.70;;;9.30;61.20;;;;;;940325;149;27435;-75
2023/05/19 02:55:44;;;;;;;4.90;1.83;;;9.20;61.30;;;;;;917431;152;28217;-76
2023/05/19 02:58:11;;;;;;;3.20;1.70;;;9.20;61.60;;;;;;940413;149;27924;-75
2023/05/19 03:00:37;;;;;;;3.30;1.80;;;9.20;61.70;;;;;;941133;149;27407;-76
2023/05/19 03:03:04;;;;;;;2.47;1.70;;;9.10;61.80;;;;;;940951;149;27410;-75
2023/05/19 03:05:30;;;;;;;2.17;1.70;;;9.10;62.10;;;;;;941126;149;27366;-76
2023/05/19 03:07:57;;;;;;;2.60;1.70;;;9.10;62.30;;;;;;941116;149;27892;-75
2023/05/19 03:10:23;;;;;;;7.47;1.70;;;9.10;62.50;;;;;;941121;149;27373;-75
2023/05/19 03:12:50;;;;;;;3.13;1.70;;;9.10;62.10;;;;;;923609;151;27415;-75
2023/05/19 03:15:18;;;;;;;1.97;1.70;;;9.00;62.60;;;;;;918238;151;27385;-76
2023/05/19 03:17:43;;;;;;;3.00;1.80;;;9.10;62.70;;;;;;947282;148;27525;-75
2023/05/19 03:20:10;;;;;;;2.90;1.73;;;9.00;62.80;;;;;;946848;148;27468;-75
2023/05/19 03:22:36;;;;;;;3.60;1.83;;;9.00;62.90;;;;;;947235;149;27304;-75
2023/05/19 03:25:03;;;;;;;2.33;1.67;;;9.10;63.10;;;;;;931439;151;27349;-75
2023/05/19 03:27:30;;;;;;;2.37;1.60;;;9.10;63.10;;;;;;947309;148;27372;-75
2023/05/19 03:29:56;;;;;;;5.37;1.63;;;9.10;63.20;;;;;;931007;149;27460;-75
2023/05/19 03:32:23;;;;;;;2.77;1.77;;;9.10;63.40;;;;;;947021;148;27348;-75
2023/05/19 03:34:49;;;;;;;4.87;1.53;;;9.10;63.20;;;;;;947571;149;27265;-75
2023/05/19 03:37:16;;;;;;;3.83;1.80;;;9.10;63.20;;;;;;947129;149;27335;-75
2023/05/19 03:39:43;;;;;;;3.20;2.10;;;9.10;63.40;;;;;;927836;152;27382;-75
2023/05/19 03:42:09;;;;;;;2.83;1.93;;;9.10;63.50;;;;;;946691;149;27365;-75
2023/05/19 03:44:36;;;;;;;3.17;1.83;;;9.10;63.50;;;;;;946846;148;27375;-75
2023/05/19 03:47:02;;;;;;;2.50;1.73;;;9.10;63.50;;;;;;935985;150;27341;-75
2023/05/19 03:49:29;;;;;;;3.13;1.70;;;9.10;63.60;;;;;;931430;151;27363;-75
2023/05/19 03:51:56;;;;;;;2.60;1.77;;;9.10;63.70;;;;;;931371;150;27384;-75
2023/05/19 03:54:22;;;;;;;2.70;1.47;;;9.20;63.70;;;;;;950442;148;27354;-75
2023/05/19 03:56:49;;;;;;;4.33;1.90;;;9.20;63.70;;;;;;929571;151;27353;-75
2023/05/19 03:59:15;;;;;;;4.50;1.70;;;9.20;63.70;;;;;;931564;151;27383;-75
2023/05/19 04:01:42;;;;;;;3.27;1.60;;;9.30;63.70;;;;;;947010;149;27947;-75
2023/05/19 04:04:08;;;;;;;3.17;1.50;;;9.30;63.80;;;;;;946510;149;28065;-75
2023/05/19 04:06:36;;;;;;;2.80;2.13;;;9.40;64.20;;;;;;947450;148;27429;-75
2023/05/19 04:09:02;;;;;;;4.23;1.60;;;9.40;63.90;;;;;;947284;149;27366;-75
2023/05/19 04:11:28;;;;;;;2.60;1.50;;;9.40;63.90;;;;;;947337;149;27435;-75
2023/05/19 04:13:55;;;;;;;3.50;1.60;;;9.50;64.10;;;;;;946551;149;27373;-75
2023/05/19 04:16:21;;;;;;;3.37;1.60;;;9.50;63.90;;;;;;946594;149;27357;-75
2023/05/19 04:18:48;;;;;;;2.77;1.93;;;9.60;63.70;;;;;;950559;148;27630;-75
2023/05/19 04:21:14;;;;;;;3.40;1.83;;;9.60;63.80;;;;;;941193;149;27952;-75
2023/05/19 04:23:41;;;;;;;3.27;1.70;;;9.70;63.80;;;;;;941339;149;27376;-75
2023/05/19 04:26:08;;;;;;;1.77;1.53;;;9.80;64.00;;;;;;942062;149;27429;-75
2023/05/19 04:28:37;;;;;;;2.40;1.60;;;9.80;63.90;;;;;;946867;149;27292;-75
2023/05/19 04:31:02;;;;;;;2.27;1.50;;;9.90;64.00;;;;;;929924;151;27389;-74
2023/05/19 04:33:28;;;;;;;3.57;1.63;;;10.00;64.00;;;;;;947207;148;27374;-75
2023/05/19 04:35:54;;;;;;;2.13;1.63;;;10.10;63.90;;;;;;928108;152;27460;-74
2023/05/19 04:38:21;;;;;;;3.20;1.53;;;10.10;64.00;;;;;;926695;151;27898;-74
2023/05/19 04:40:48;;;;;;;2.93;1.70;;;10.20;63.80;;;;;;948049;149;27328;-75
2023/05/19 04:43:14;;;;;;;3.13;1.93;;;10.30;64.00;;;;;;946881;149;27383;-74
2023/05/19 04:45:41;;;;;;;3.23;1.50;;;10.40;63.90;;;;;;947687;149;27460;-74
2023/05/19 04:48:07;;;;;;;2.50;1.70;;;10.50;63.90;;;;;;947083;149;27277;-75
2023/05/19 04:50:37;;;;;;;2.00;1.70;;;10.70;64.00;;;;;;947175;149;27429;-75
2023/05/19 04:53:00;;;;;;;4.00;1.80;;;10.80;64.00;;;;;;946725;149;27375;-74
2023/05/19 04:55:27;;;;;;;3.90;1.80;;;10.90;63.80;;;;;;930787;151;27385;-74
2023/05/19 04:57:53;;;;;;;2.10;1.30;;;11.00;63.80;;;;;;926031;151;27336;-74
2023/05/19 05:00:20;;;;;;;2.83;1.77;;;11.10;63.60;;;;;;946713;149;27380;-75
2023/05/19 05:02:47;;;;;;;2.60;1.63;;;11.30;63.60;;;;;;927780;151;27534;-74
2023/05/19 05:05:13;;;;;;;3.27;1.50;;;11.40;63.50;;;;;;945628;151;27377;-75
2023/05/19 05:07:40;;;;;;;3.23;1.30;;;11.50;63.30;;;;;;924938;151;27460;-74
2023/05/19 05:10:07;;;;;;;3.53;1.80;;;11.60;63.20;;;;;;930334;151;27408;-76
2023/05/19 05:12:33;;;;;;;2.17;1.80;;;11.80;63.10;;;;;;947379;148;27367;-76
2023/05/19 05:15:00;;;;;;;4.73;1.53;;;11.90;63.60;;;;;;947509;148;27366;-76
2023/05/19 05:17:27;;;;;;;1.90;1.33;;;12.10;63.00;;;;;;943963;149;27502;-76
2023/05/19 05:19:53;;;;;;;2.27;1.93;;;12.20;63.00;;;;;;911785;152;27425;-76
2023/05/19 05:22:20;;;;;;;2.63;1.50;;;12.40;62.60;;;;;;935120;149;27342;-76
2023/05/19 05:24:46;;;;;;;3.37;1.60;;;12.60;62.60;;;;;;918540;152;27382;-76
2023/05/19 05:27:13;;;;;;;2.30;1.40;;;12.80;62.50;;;;;;935290;149;27421;-76
2023/05/19 05:29:39;;;;;;;5.17;1.70;;;13.00;62.30;;;;;;934544;150;27326;-76
2023/05/19 05:32:06;;;;;;;1.70;1.60;;;13.20;62.20;;;;;;913573;153;27347;-76
2023/05/19 05:34:33;;;;;;;3.50;1.77;;;13.40;62.00;;;;;;934968;149;27407;-76
2023/05/19 05:36:59;;;;;;;2.90;1.53;;;13.70;61.80;;;;;;935395;149;27473;-76
2023/05/19 05:39:26;;;;;;;2.27;1.20;;;13.90;61.40;;;;;;935851;149;27434;-76
2023/05/19 05:41:52;;;;;;;2.53;1.70;;;14.10;61.10;;;;;;935299;148;27419;-76
2023/05/19 05:44:19;;;;;;;3.37;1.77;;;14.30;60.70;;;;;;918636;152;27746;-76
2023/05/19 05:46:45;;;;;;;2.13;1.60;;;14.50;60.30;;;;;;934374;149;27341;-76
2023/05/19 05:49:12;;;;;;;2.40;1.30;;;14.70;59.90;;;;;;918664;152;27468;-76
2023/05/19 05:51:39;;;;;;;2.47;1.57;;;14.80;59.60;;;;;;917582;152;27345;-76
2023/05/19 05:54:05;;;;;;;3.08;1.70;;;15.00;59.40;;;;;;918669;152;27996;-76
2023/05/19 05:56:35;;;;;;;3.70;2.17;;;15.10;59.20;;;;;;934646;149;27407;-77
2023/05/19 05:58:58;;;;;;;1.82;1.52;;;15.20;59.10;;;;;;933339;149;27381;-76
2023/05/19 06:01:25;;;;;;;2.27;1.30;;;15.40;58.70;;;;;;933599;149;27348;-76
2023/05/19 06:03:52;;;;;;;3.25;1.42;;;15.50;58.60;;;;;;916742;152;27440;-76
2023/05/19 06:06:18;;;;;;;2.30;1.60;;;15.60;58.40;;;;;;912250;152;27367;-76
2023/05/19 06:08:45;;;;;;;1.92;1.50;;;15.80;58.50;;;;;;918303;152;27490;-76
2023/05/19 06:11:11;;;;;;;2.60;1.52;;;16.00;58.50;;;;;;912264;153;27469;-76
2023/05/19 06:13:40;;;;;;;2.20;1.60;;;16.20;58.30;;;;;;919196;153;27433;-77
2023/05/19 06:16:05;;;;;;;3.83;1.85;;;16.40;58.30;;;;;;917387;153;27360;-76
2023/05/19 06:18:31;;;;;;;2.92;1.55;;;16.60;58.10;;;;;;929850;149;27372;-77
2023/05/19 06:20:58;;;;;;;2.35;1.50;;;16.90;57.90;;;;;;925426;151;27449;-77
2023/05/19 06:23:25;;;;;;;2.33;1.57;;;17.10;57.60;;;;;;925368;151;27329;-77
2023/05/19 06:25:51;;;;;;;2.33;1.57;;;17.40;57.30;;;;;;925013;151;27913;-77
2023/05/19 06:28:17;;;;;;;2.75;1.60;;;17.60;56.90;;;;;;927892;151;27241;-77
2023/05/19 06:30:44;;;;;;;3.15;1.55;;;17.80;56.60;;;;;;924734;151;27381;-77
2023/05/19 06:33:11;;;;;;;2.58;1.47;;;17.90;56.20;;;;;;926517;151;27452;-76
2023/05/19 06:35:37;;;;;;;3.67;1.50;;;18.10;56.00;;;;;;922987;151;27254;-77
2023/05/19 06:38:04;;;;;;;5.47;2.12;;;18.20;55.70;;;;;;926390;151;27434;-77
2023/05/19 06:40:30;;;;;;;3.60;1.45;;;18.40;56.10;;;;;;924335;151;27352;-76
2023/05/19 06:42:57;;;;;;;2.42;1.50;;;18.60;55.70;;;;;;925966;151;27385;-77
2023/05/19 06:45:24;;;;;;;7.50;2.10;;;18.90;56.00;;;;;;924495;151;27419;-77
2023/05/19 06:47:50;;;;;;;3.85;1.50;;;19.20;56.10;;;;;;924943;151;27307;-77
2023/05/19 06:50:17;;;;;;;1.80;1.40;;;19.70;56.30;;;;;;925110;151;27350;-76
2023/05/19 06:52:45;;;;;;;8.03;2.25;;;20.20;56.20;;;;;;924397;151;27655;-76
2023/05/19 06:55:10;;;;;;;3.52;2.02;;;20.80;55.80;;;;;;926824;152;27376;-76
2023/05/19 06:57:37;;;;;;;2.22;1.20;;;21.40;55.00;;;;;;920310;153;27357;-77
2023/05/19 07:00:04;;;;;;;2.42;1.40;;;21.90;53.80;;;;;;920337;153;27471;-77
2023/05/19 07:02:30;;;;;;;3.27;1.72;;;22.20;52.60;;;;;;924814;151;27456;-76
2023/05/19 07:04:56;;;;;;;3.33;1.70;;;22.50;51.50;;;;;;895409;154;27364;-77
2023/05/19 07:07:23;;;;;;;2.15;1.40;;;22.60;50.60;;;;;;923305;153;27410;-77
2023/05/19 07:09:50;;;;;;;4.15;1.52;;;22.60;50.20;;;;;;922322;153;27503;-76
2023/05/19 07:12:16;;;;;;;3.52;1.62;;;22.60;50.10;;;;;;923597;153;27384;-77
2023/05/19 07:14:43;;;;;;;2.40;1.20;;;22.60;50.00;;;;;;921824;153;27879;-77
2023/05/19 07:17:09;;;;;;;2.55;1.45;;;22.70;50.10;;;;;;923820;153;27439;-77
2023/05/19 07:19:36;;;;;;;4.37;1.67;;;22.90;50.00;;;;;;924635;150;27906;-77
2023/05/19 07:22:02;;;;;;;1.35;1.15;;;23.10;50.30;;;;;;936347;150;27490;-77
2023/05/19 07:24:30;;;;;;;2.77;1.62;;;23.30;49.30;;;;;;936318;150;27399;-77
2023/05/19 07:26:56;;;;;;;2.05;1.20;;;23.50;49.00;;;;;;944246;149;27310;-77
2023/05/19 07:29:22;;;;;;;3.22;1.27;;;23.70;48.70;;;;;;944531;149;27372;-77
2023/05/19 07:31:52;;;;;;;2.58;1.80;;;23.90;48.60;;;;;;951395;148;27331;-77
2023/05/19 07:34:15;;;;;;;1.82;1.35;;;24.20;48.60;;;;;;934304;151;27385;-76
2023/05/19 07:36:42;;;;;;;2.25;1.52;;;24.60;48.50;;;;;;951811;148;27352;-77
2023/05/19 07:39:09;;;;;;;2.98;1.50;;;25.00;48.30;;;;;;931507;150;27462;-77
2023/05/19 07:41:35;;;;;;;2.22;1.27;;;25.50;48.20;;;;;;936438;150;27343;-77
2023/05/19 07:44:06;;;;;;;3.22;1.40;;;26.10;47.90;;;;;;934303;150;27322;-77
2023/05/19 07:46:28;;;;;;;1.60;1.17;;;26.60;47.10;;;;;;950639;148;27363;-77
2023/05/19 07:48:55;;;;;;;3.27;1.60;;;27.20;46.60;;;;;;934808;150;27360;-77
2023/05/19 07:51:22;;;;;;;3.42;1.80;;;27.70;46.00;;;;;;951594;147;27265;-77
2023/05/19 07:53:48;;;;;;;1.87;1.15;;;28.30;45.60;;;;;;951917;148;27448;-77
2023/05/19 07:56:15;;;;;;;2.80;1.30;;;28.80;44.70;;;;;;951529;148;27354;-77
2023/05/19 07:58:41;;;;;;;2.83;1.20;;;29.20;44.20;;;;;;951609;148;27913;-77
2023/05/19 08:01:08;;;;;;;2.27;1.15;;;29.70;43.60;;;;;;952215;147;27367;-78
2023/05/19 08:03:34;;;;;;;3.83;1.57;;;30.20;42.70;;;;;;950843;148;27308;-78
2023/05/19 08:06:01;;;;;;;1.20;1.10;;;30.60;41.90;;;;;;951400;147;27348;-77
2023/05/19 08:08:28;;;;;;;1.85;1.40;;;30.90;41.00;;;;;;951859;148;27453;-78
2023/05/19 08:10:54;;;;;;;2.02;1.17;;;31.00;40.40;;;;;;952036;148;27524;-78
2023/05/19 08:13:21;;;;;;;1.50;1.10;;;31.30;40.90;;;;;;950615;148;27376;-77
2023/05/19 08:15:47;;;;;;;3.52;1.10;;;31.50;40.00;;;;;;952014;148;27317;-78
2023/05/19 08:18:14;;;;;;;2.47;1.50;;;31.70;39.60;;;;;;951853;147;27465;-78
2023/05/19 08:20:41;;;;;;;2.85;1.17;;;32.00;39.50;;;;;;948596;148;27369;-78
2023/05/19 08:23:07;;;;;;;3.12;1.10;;;32.30;39.20;;;;;;946755;149;27422;-78
2023/05/19 08:25:34;;;;;;;2.45;1.47;;;32.60;38.80;;;;;;947115;149;27423;-78
2023/05/19 08:28:00;;;;;;;5.20;1.42;;;33.00;38.40;;;;;;947714;149;26239;-78
2023/05/19 08:30:27;;;;;;;4.05;1.77;;;33.30;37.80;;;;;;946933;148;27297;-78
2023/05/19 08:32:54;;;;;;;1.62;1.20;;;33.50;37.30;;;;;;947435;149;26240;-78
2023/05/19 08:35:20;;;;;;;2.55;1.07;;;33.70;36.80;;;;;;936147;150;27426;-78
2023/05/19 08:37:47;;;;;;;1.82;1.50;;;33.80;35.90;;;;;;928008;152;27399;-78
2023/05/19 08:40:13;;;;;;;2.35;1.55;;;33.80;35.40;;;;;;946699;151;27364;-78
2023/05/19 08:42:40;;;;;;;2.20;1.10;;;33.60;35.10;;;;;;945482;151;27344;-78
2023/05/19 08:45:07;;;;;;;2.40;1.20;;;33.30;34.70;;;;;;926345;151;27437;-78
2023/05/19 08:47:33;;;;;;;2.98;1.55;;;33.10;34.10;;;;;;947422;148;27284;-78
2023/05/19 08:50:01;;;;;;;3.35;1.52;;;32.70;34.00;;;;;;946474;148;27710;-78
2023/05/19 08:52:26;;;;;;;1.98;1.20;;;32.30;34.00;;;;;;945174;148;27454;-78
2023/05/19 08:54:53;;;;;;;2.37;1.10;;;31.90;34.00;;;;;;945766;148;26251;-78
2023/05/19 08:57:19;;;;;;;2.30;1.30;;;31.40;34.10;;;;;;945680;148;27357;-78
2023/05/19 08:59:47;;;;;;;2.87;1.30;;;31.10;34.60;;;;;;930940;150;27373;-78
2023/05/19 09:02:13;;;;;;;1.65;1.20;;;30.70;34.60;;;;;;945737;148;27481;-78
2023/05/19 09:04:39;;;;;;;1.75;1.40;;;30.50;34.80;;;;;;946200;148;27250;-77
2023/05/19 09:07:06;;;;;;;2.83;1.22;;;30.30;34.80;;;;;;945885;149;27328;-78
2023/05/19 09:09:32;;;;;;;2.45;1.40;;;30.00;34.80;;;;;;947404;148;27368;-78
2023/05/19 09:11:59;;;;;;;1.42;1.32;;;29.70;34.80;;;;;;948134;148;27356;-78
2023/05/19 09:14:26;;;;;;;2.50;1.37;;;29.50;34.70;;;;;;930395;151;27396;-78
2023/05/19 09:16:52;;;;;;;2.47;1.27;;;29.20;34.90;;;;;;931499;151;27364;-78
2023/05/19 09:19:20;;;;;;;4.05;1.12;;;28.90;34.80;;;;;;931441;151;27446;-78
2023/05/19 09:21:45;;;;;;;2.60;1.25;;;28.50;35.00;;;;;;930733;151;27528;-78
2023/05/19 09:24:12;;;;;;;2.17;1.20;;;28.30;35.30;;;;;;947696;148;27395;-78
2023/05/19 09:26:39;;;;;;;2.80;1.12;;;28.00;35.50;;;;;;932041;151;27444;-78
2023/05/19 09:29:11;;;;;;;2.85;1.35;;;27.70;35.70;;;;;;928158;152;27324;-78
2023/05/19 09:31:38;;;;;;;2.87;1.45;;;27.60;35.90;;;;;;946773;149;27449;-78
2023/05/19 09:34:04;;;;;;;1.98;1.60;;;27.40;36.00;;;;;;947239;148;27756;-78
2023/05/19 09:36:31;;;;;;;2.52;1.70;;;27.30;36.30;;;;;;947793;148;27332;-78
2023/05/19 09:38:57;;;;;;;2.20;1.25;;;27.20;36.80;;;;;;934429;151;27345;-78
2023/05/19 09:41:25;;;;;;;1.85;1.17;;;27.20;36.90;;;;;;928066;152;27423;-78
2023/05/19 09:43:56;;;;;;;1.27;1.00;;;27.30;36.80;;;;;;926836;152;27377;-78
2023/05/19 09:46:27;;;;;;;2.25;1.65;;;27.40;37.00;;;;;;946640;151;27395;-78
2023/05/19 09:48:53;;;;;;;2.08;1.40;;;27.60;37.80;;;;;;946186;151;27317;-79
2023/05/19 09:51:20;;;;;;;1.45;1.20;;;27.90;38.20;;;;;;945630;150;27405;-78
2023/05/19 09:53:46;;;;;;;1.60;1.20;;;28.40;39.50;;;;;;946534;148;27360;-79
2023/05/19 09:56:12;;;;;;;5.58;1.47;;;28.90;38.30;;;;;;946705;150;27388;-79
2023/05/19 09:58:39;;;;;;;1.40;1.15;;;29.40;37.70;;;;;;927987;152;27354;-79
2023/05/19 10:01:06;;;;;;;2.98;1.80;;;29.90;37.40;;;;;;945755;148;27422;-79
2023/05/19 10:03:32;;;;;;;2.27;1.40;;;30.30;36.60;;;;;;925700;151;27412;-79
2023/05/19 10:05:59;;;;;;;2.70;1.92;;;30.60;36.20;;;;;;947143;149;27353;-79
2023/05/19 10:08:26;;;;;;;1.67;1.37;;;30.80;35.50;;;;;;946575;148;27470;-79
2023/05/19 10:10:52;;;;;;;1.77;1.47;;;31.00;35.10;;;;;;947114;148;27369;-79
2023/05/19 10:13:18;;;;;;;2.27;1.37;;;31.10;34.70;;;;;;947147;149;27406;-79
2023/05/19 10:15:45;;;;;;;2.08;1.30;;;31.20;34.20;;;;;;946667;149;26248;-79
2023/05/19 10:18:12;;;;;;;2.67;1.30;;;31.20;34.30;;;;;;947115;148;27452;-78
2023/05/19 10:20:38;;;;;;;2.27;1.22;;;31.10;33.60;;;;;;944874;148;27371;-78
2023/05/19 10:23:05;;;;;;;2.67;1.45;;;30.90;33.40;;;;;;934293;149;27408;-79
2023/05/19 10:25:35;;;;;;;2.70;1.62;;;30.60;33.40;;;;;;919087;152;27368;-75
2023/05/19 10:28:01;;;;;;;1.95;1.30;;;30.30;33.30;;;;;;934145;150;27467;-75
2023/05/19 10:30:37;;;;;;;1.75;1.30;;;30.00;33.30;;;;;;934317;149;27303;-75
2023/05/19 10:33:03;;;;;;;4.17;1.25;;;29.80;33.50;;;;;;933405;149;27447;-75
2023/05/19 10:35:36;;;;;;;2.40;1.20;;;29.50;33.50;;;;;;912783;152;27293;-75
2023/05/19 10:38:05;;;;;;;1.77;1.15;;;29.30;33.60;;;;;;918092;152;27457;-74
2023/05/19 10:40:41;;;;;;;2.65;1.40;;;29.10;33.70;;;;;;921233;152;27346;-75
2023/05/19 10:43:13;;;;;;;2.60;1.57;;;28.80;33.80;;;;;;908478;153;27361;-75
2023/05/19 10:45:39;;;;;;;3.02;1.37;;;28.60;34.10;;;;;;934411;149;27427;-75
2023/05/19 10:48:06;;;;;;;1.75;1.50;;;28.40;34.40;;;;;;933777;149;27855;-75
2023/05/19 10:50:33;;;;;;;2.12;1.40;;;28.20;34.10;;;;;;913530;152;27372;-75
2023/05/19 10:52:59;;;;;;;2.67;1.17;;;28.10;34.30;;;;;;917343;152;27337;-75
2023/05/19 10:55:45;;;;;;;2.17;1.60;;;27.90;34.30;;;;;;912339;153;27351;-75
2023/05/19 10:58:11;;;;;;;1.52;1.42;;;27.80;34.50;;;;;;934576;149;27338;-75
2023/05/19 11:00:38;;;;;;;1.30;1.12;;;27.70;34.50;;;;;;911777;152;27392;-75
2023/05/19 11:03:22;;;;;;;2.67;1.40;;;27.60;34.50;;;;;;918720;152;27306;-75
2023/05/19 11:05:48;;;;;;;1.60;1.40;;;27.50;34.50;;;;;;916354;152;27426;-75
2023/05/19 11:08:12;;;;;;;2.85;1.45;;;27.40;34.50;;;;;;911326;153;27504;-75
2023/05/19 11:10:38;;;;;;;1.45;1.35;;;27.30;34.60;;;;;;927362;152;27419;-75
2023/05/19 11:13:05;;;;;;;1.80;1.30;;;27.20;34.50;;;;;;927022;152;27382;-76
2023/05/19 11:15:32;;;;;;;2.27;1.40;;;27.00;34.70;;;;;;926168;152;27449;-75
2023/05/19 11:17:58;;;;;;;1.30;1.20;;;26.80;34.70;;;;;;926265;152;27420;-75
2023/05/19 11:20:25;;;;;;;1.42;1.30;;;26.70;35.00;;;;;;926927;151;27378;-76
2023/05/19 11:23:06;;;;;;;1.85;0.85;;;26.50;34.90;;;;;;925049;152;27383;-75
2023/05/19 11:25:42;;;;;;;1.67;1.40;;;26.30;35.00;;;;;;938579;152;27271;-75
2023/05/19 11:28:08;;;;;;;4.12;1.12;;;26.10;35.20;;;;;;924514;152;27811;-75
2023/05/19 11:30:35;;;;;;;3.98;1.35;;;25.90;35.50;;;;;;912722;155;27416;-75
2023/05/19 11:33:01;;;;;;;2.67;1.20;;;25.70;35.80;;;;;;939001;150;27387;-74
2023/05/19 11:35:28;;;;;;;2.33;1.17;;;25.50;35.90;;;;;;938426;150;27314;-75
2023/05/19 11:37:55;;;;;;;1.70;1.20;;;25.50;36.10;;;;;;937777;150;27340;-75
2023/05/19 11:40:21;;;;;;;1.02;0.93;;;25.40;36.30;;;;;;916785;152;27371;-75
2023/05/19 11:42:48;;;;;;;1.15;0.88;;;25.30;36.50;;;;;;922202;155;27351;-75
2023/05/19 11:45:15;;;;;;;2.42;1.40;;;25.20;36.80;;;;;;921708;152;27368;-75
2023/05/19 11:47:41;;;;;;;3.55;1.37;;;25.20;36.80;;;;;;921315;153;27822;-75
2023/05/19 11:50:08;;;;;;;3.42;1.00;;;25.20;36.90;;;;;;937294;150;27448;-75
2023/05/19 11:52:34;;;;;;;2.02;1.37;;;25.20;37.00;;;;;;937292;150;27450;-75
2023/05/19 11:55:01;;;;;;;1.20;1.12;;;25.20;37.20;;;;;;922136;153;27437;-75
2023/05/19 11:57:27;;;;;;;1.12;0.93;;;25.30;37.30;;;;;;921997;155;27409;-75
2023/05/19 11:59:55;;;;;;;0.98;0.95;;;25.30;37.00;;;;;;923411;152;27304;-75
2023/05/19 12:02:21;;;;;;;2.05;1.30;;;25.40;37.00;;;;;;938678;150;27369;-74
2023/05/19 12:04:48;;;;;;;1.37;1.10;;;25.30;37.00;;;;;;923177;153;27883;-75
2023/05/19 12:07:17;;;;;;;2.55;1.42;;;25.30;37.30;;;;;;934727;150;27317;-74
2023/05/19 12:09:44;;;;;;;1.22;1.12;;;25.30;37.40;;;;;;922927;153;27496;-75
2023/05/19 12:12:09;;;;;;;1.30;1.15;;;25.40;37.60;;;;;;938023;151;27390;-75
2023/05/19 12:14:36;;;;;;;2.05;1.27;;;25.50;37.70;;;;;;922402;154;27415;-75
2023/05/19 12:17:12;;;;;;;1.42;1.30;;;25.50;37.60;;;;;;939256;151;27823;-75
2023/05/19 12:19:38;;;;;;;1.27;1.10;;;25.60;37.50;;;;;;920983;153;27389;-75
2023/05/19 12:22:05;;;;;;;1.52;1.30;;;25.70;37.40;;;;;;937368;150;27422;-75
2023/05/19 12:24:32;;;;;;;3.42;1.20;;;25.70;37.30;;;;;;934754;149;27362;-75
2023/05/19 12:27:04;;;;;;;1.47;1.15;;;25.80;37.40;;;;;;935479;149;27334;-75
2023/05/19 12:29:31;;;;;;;1.82;1.62;;;25.80;37.40;;;;;;922145;152;27327;-75
2023/05/19 12:31:57;;;;;;;2.30;1.12;;;25.90;37.40;;;;;;923540;152;27354;-75
2023/05/19 12:34:24;;;;;;;1.17;1.00;;;26.00;37.60;;;;;;919273;152;27395;-75
2023/05/19 12:36:50;;;;;;;2.22;1.10;;;26.00;37.60;;;;;;928366;150;27448;-75
2023/05/19 12:39:17;;;;;;;3.83;1.57;;;26.10;37.60;;;;;;935011;149;27343;-75
2023/05/19 12:41:47;;;;;;;2.27;1.20;;;26.20;37.60;;;;;;932433;149;27394;-74
2023/05/19 12:44:16;;;;;;;1.27;0.93;;;26.20;37.50;;;;;;934475;149;27350;-75
2023/05/19 12:46:42;;;;;;;1.37;0.95;;;26.40;37.60;;;;;;934216;149;27341;-75